sensor_id;sensor_type;location;lat;lon;timestamp;pressure;altitude;pressure_sealevel;temperature;humidity
18790;BME280;9523;42.650;23.386;2022-09-20T00:02:27;94679.69;;;10.22;100.00
18790;BME280;9523;42.650;23.386;2022-09-20T00:04:53;94676.66;;;10.10;100.00
18790;BME280;9523;42.650;23.386;2022-09-20T00:07:22;94685.03;;;10.17;100.00
18790;BME280;9523;42.650;23.386;2022-09-20T00:09:48;94681.50;;;10.03;100.00
18790;BME280;9523;42.650;23.386;2022-09-20T00:12:15;94681.03;;;9.96;100.00
18790;BME280;9523;42.650;23.386;2022-09-20T00:14:42;94649.72;;;9.70;100.00
18790;BME280;9523;42.650;23.386;2022-09-20T00:17:09;94678.56;;;9.80;100.00
18790;BME280;9523;42.650;23.386;2022-09-20T00:19:36;94671.56;;;9.95;100.00
18790;BME280;9523;42.650;23.386;2022-09-20T00:22:03;94677.75;;;9.85;100.00
18790;BME280;9523;42.650;23.386;2022-09-20T00:24:32;94672.47;;;9.85;100.00
18790;BME280;9523;42.650;23.386;2022-09-20T00:27:00;94672.63;;;9.70;100.00
18790;BME280;9523;42.650;23.386;2022-09-20T00:29:28;94671.63;;;9.66;100.00
18790;BME280;9523;42.650;23.386;2022-09-20T00:31:58;94673.00;;;9.63;100.00
18790;BME280;9523;42.650;23.386;2022-09-20T00:34:25;94675.09;;;9.61;100.00
18790;BME280;9523;42.650;23.386;2022-09-20T00:37:09;94671.09;;;9.64;100.00
18790;BME280;9523;42.650;23.386;2022-09-20T00:39:37;94665.63;;;9.60;100.00
18790;BME280;9523;42.650;23.386;2022-09-20T00:42:04;94676.16;;;9.60;100.00
18790;BME280;9523;42.650;23.386;2022-09-20T00:44:48;94663.06;;;9.55;100.00
18790;BME280;9523;42.650;23.386;2022-09-20T00:47:28;94656.81;;;9.46;100.00
18790;BME280;9523;42.650;23.386;2022-09-20T00:50:01;94678.34;;;9.53;100.00
18790;BME280;9523;42.650;23.386;2022-09-20T00:52:29;94659.00;;;9.39;100.00
18790;BME280;9523;42.650;23.386;2022-09-20T00:54:57;94688.88;;;9.53;100.00
18790;BME280;9523;42.650;23.386;2022-09-20T00:57:28;94676.69;;;9.62;100.00
18790;BME280;9523;42.650;23.386;2022-09-20T01:00:02;94699.06;;;9.60;100.00
18790;BME280;9523;42.650;23.386;2022-09-20T01:02:30;94679.88;;;9.59;100.00
18790;BME280;9523;42.650;23.386;2022-09-20T01:04:58;94680.94;;;9.58;100.00
18790;BME280;9523;42.650;23.386;2022-09-20T01:07:26;94677.78;;;9.56;100.00
18790;BME280;9523;42.650;23.386;2022-09-20T01:09:58;94683.59;;;9.53;100.00
18790;BME280;9523;42.650;23.386;2022-09-20T01:12:27;94680.19;;;9.53;100.00
18790;BME280;9523;42.650;23.386;2022-09-20T01:14:55;94675.09;;;9.61;100.00
18790;BME280;9523;42.650;23.386;2022-09-20T01:17:24;94682.78;;;9.58;99.66
18790;BME280;9523;42.650;23.386;2022-09-20T01:20:07;94686.75;;;9.55;99.79
18790;BME280;9523;42.650;23.386;2022-09-20T01:22:42;94670.78;;;9.47;100.00
18790;BME280;9523;42.650;23.386;2022-09-20T01:25:16;94675.09;;;9.61;98.17
18790;BME280;9523;42.650;23.386;2022-09-20T01:27:46;94652.56;;;9.50;97.98
18790;BME280;9523;42.650;23.386;2022-09-20T01:30:16;94672.19;;;9.63;97.57
18790;BME280;9523;42.650;23.386;2022-09-20T01:32:54;94678.34;;;9.53;97.37
18790;BME280;9523;42.650;23.386;2022-09-20T01:35:24;94673.06;;;9.53;97.20
18790;BME280;9523;42.650;23.386;2022-09-20T01:38:17;94669.88;;;9.56;96.55
18790;BME280;9523;42.650;23.386;2022-09-20T01:40:57;94667.94;;;9.43;96.62
18790;BME280;9523;42.650;23.386;2022-09-20T01:43:34;94672.66;;;9.41;95.26
18790;BME280;9523;42.650;23.386;2022-09-20T01:46:13;94667.50;;;9.31;96.78
18790;BME280;9523;42.650;23.386;2022-09-20T01:48:44;94682.00;;;9.28;98.04
18790;BME280;9523;42.650;23.386;2022-09-20T01:51:29;94690.13;;;9.32;98.19
18790;BME280;9523;42.650;23.386;2022-09-20T02:00:29;94686.38;;;9.09;100.00
18790;BME280;9523;42.650;23.386;2022-09-20T02:03:40;94685.09;;;9.07;100.00
18790;BME280;9523;42.650;23.386;2022-09-20T02:06:19;94675.94;;;8.99;100.00
18790;BME280;9523;42.650;23.386;2022-09-20T02:12:03;94660.09;;;9.04;100.00
18790;BME280;9523;42.650;23.386;2022-09-20T02:14:43;94658.78;;;9.07;100.00
18790;BME280;9523;42.650;23.386;2022-09-20T02:17:22;94665.66;;;9.03;100.00
18790;BME280;9523;42.650;23.386;2022-09-20T02:20:10;94659.41;;;8.93;100.00
18790;BME280;9523;42.650;23.386;2022-09-20T02:22:50;94649.00;;;8.78;100.00
18790;BME280;9523;42.650;23.386;2022-09-20T02:25:57;94634.66;;;8.61;100.00
18790;BME280;9523;42.650;23.386;2022-09-20T02:28:50;94661.09;;;8.79;100.00
18790;BME280;9523;42.650;23.386;2022-09-20T02:31:29;94680.56;;;8.78;100.00
18790;BME280;9523;42.650;23.386;2022-09-20T02:34:21;94655.66;;;8.71;100.00
18790;BME280;9523;42.650;23.386;2022-09-20T02:37:02;94667.75;;;8.72;100.00
18790;BME280;9523;42.650;23.386;2022-09-20T02:39:36;94659.84;;;8.72;100.00
18790;BME280;9523;42.650;23.386;2022-09-20T02:42:12;94664.34;;;8.66;100.00
18790;BME280;9523;42.650;23.386;2022-09-20T02:44:58;94664.63;;;8.65;100.00
18790;BME280;9523;42.650;23.386;2022-09-20T02:47:31;94674.91;;;8.61;100.00
18790;BME280;9523;42.650;23.386;2022-09-20T02:50:12;94671.72;;;8.64;100.00
18790;BME280;9523;42.650;23.386;2022-09-20T02:52:50;94662.31;;;8.58;100.00
18790;BME280;9523;42.650;23.386;2022-09-20T02:55:31;94680.72;;;8.58;100.00
18790;BME280;9523;42.650;23.386;2022-09-20T02:58:08;94687.03;;;8.52;100.00
18790;BME280;9523;42.650;23.386;2022-09-20T03:00:47;94673.47;;;8.40;100.00
18790;BME280;9523;42.650;23.386;2022-09-20T03:03:31;94668.25;;;8.35;100.00
18790;BME280;9523;42.650;23.386;2022-09-20T03:06:06;94683.69;;;8.41;100.00
18790;BME280;9523;42.650;23.386;2022-09-20T03:08:41;94686.06;;;8.43;100.00
18790;BME280;9523;42.650;23.386;2022-09-20T03:11:14;94678.75;;;8.35;100.00
18790;BME280;9523;42.650;23.386;2022-09-20T03:14:09;94670.13;;;8.19;100.00
18790;BME280;9523;42.650;23.386;2022-09-20T03:16:45;94683.47;;;8.33;100.00
18790;BME280;9523;42.650;23.386;2022-09-20T03:19:24;94688.50;;;8.29;100.00
18790;BME280;9523;42.650;23.386;2022-09-20T03:22:11;94694.81;;;8.23;100.00
18790;BME280;9523;42.650;23.386;2022-09-20T03:24:55;94695.06;;;8.32;100.00
18790;BME280;9523;42.650;23.386;2022-09-20T03:27:29;94691.38;;;8.28;100.00
18790;BME280;9523;42.650;23.386;2022-09-20T03:30:19;94694.00;;;8.28;100.00
18790;BME280;9523;42.650;23.386;2022-09-20T03:33:00;94699.78;;;8.25;100.00
18790;BME280;9523;42.650;23.386;2022-09-20T03:35:45;94700.34;;;8.17;100.00
18790;BME280;9523;42.650;23.386;2022-09-20T03:38:38;94698.75;;;8.21;100.00
18790;BME280;9523;42.650;23.386;2022-09-20T03:41:22;94697.72;;;8.17;100.00
18790;BME280;9523;42.650;23.386;2022-09-20T03:44:14;94704.53;;;8.23;100.00
18790;BME280;9523;42.650;23.386;2022-09-20T03:46:56;94668.16;;;7.96;100.00
18790;BME280;9523;42.650;23.386;2022-09-20T03:49:48;94702.97;;;8.17;100.00
18790;BME280;9523;42.650;23.386;2022-09-20T03:52:32;94695.66;;;8.09;100.00
18790;BME280;9523;42.650;23.386;2022-09-20T03:55:24;94699.84;;;8.15;100.00
18790;BME280;9523;42.650;23.386;2022-09-20T03:58:12;94704.31;;;8.19;100.00
18790;BME280;9523;42.650;23.386;2022-09-20T04:00:55;94696.91;;;8.21;100.00
18790;BME280;9523;42.650;23.386;2022-09-20T04:03:37;94698.25;;;8.24;100.00
18790;BME280;9523;42.650;23.386;2022-09-20T04:06:38;94708.75;;;8.24;100.00
18790;BME280;9523;42.650;23.386;2022-09-20T04:09:38;94711.38;;;8.24;100.00
18790;BME280;9523;42.650;23.386;2022-09-20T04:12:21;94707.75;;;8.15;100.00
18790;BME280;9523;42.650;23.386;2022-09-20T04:15:03;94717.97;;;8.16;100.00
18790;BME280;9523;42.650;23.386;2022-09-20T04:17:40;94693.09;;;7.98;100.00
18790;BME280;9523;42.650;23.386;2022-09-20T04:20:16;94719.78;;;8.21;100.00
18790;BME280;9523;42.650;23.386;2022-09-20T04:22:50;94722.47;;;8.16;100.00
18790;BME280;9523;42.650;23.386;2022-09-20T04:25:20;94730.06;;;8.17;100.00
18790;BME280;9523;42.650;23.386;2022-09-20T04:27:53;94726.13;;;8.20;100.00
18790;BME280;9523;42.650;23.386;2022-09-20T04:30:24;94728.19;;;8.28;100.00
18790;BME280;9523;42.650;23.386;2022-09-20T04:32:57;94728.19;;;8.23;100.00
18790;BME280;9523;42.650;23.386;2022-09-20T04:35:35;94728.22;;;8.18;100.00
18790;BME280;9523;42.650;23.386;2022-09-20T04:38:23;94729.78;;;8.24;100.00
18790;BME280;9523;42.650;23.386;2022-09-20T04:41:16;94739.25;;;8.20;100.00
18790;BME280;9523;42.650;23.386;2022-09-20T04:50:41;94748.16;;;8.29;100.00
18790;BME280;9523;42.650;23.386;2022-09-20T04:53:25;94741.91;;;8.15;100.00
18790;BME280;9523;42.650;23.386;2022-09-20T04:56:00;94744.25;;;8.16;100.00
18790;BME280;9523;42.650;23.386;2022-09-20T04:58:45;94726.44;;;8.03;100.00
18790;BME280;9523;42.650;23.386;2022-09-20T05:04:31;94740.53;;;8.32;100.00
18790;BME280;9523;42.650;23.386;2022-09-20T05:13:19;94740.03;;;8.30;100.00
18790;BME280;9523;42.650;23.386;2022-09-20T05:15:57;94756.53;;;8.41;100.00
18790;BME280;9523;42.650;23.386;2022-09-20T05:18:49;94755.16;;;8.48;100.00
18790;BME280;9523;42.650;23.386;2022-09-20T05:21:59;94777.22;;;8.58;100.00
18790;BME280;9523;42.650;23.386;2022-09-20T05:27:35;94774.34;;;8.59;100.00
18790;BME280;9523;42.650;23.386;2022-09-20T05:30:18;94778.50;;;8.65;100.00
18790;BME280;9523;42.650;23.386;2022-09-20T05:32:54;94774.03;;;8.66;100.00
18790;BME280;9523;42.650;23.386;2022-09-20T05:35:30;94764.28;;;8.71;100.00
18790;BME280;9523;42.650;23.386;2022-09-20T05:38:04;94763.78;;;8.64;100.00
18790;BME280;9523;42.650;23.386;2022-09-20T05:40:48;94766.91;;;8.71;100.00
18790;BME280;9523;42.650;23.386;2022-09-20T05:43:25;94771.06;;;8.77;100.00
18790;BME280;9523;42.650;23.386;2022-09-20T05:46:02;94774.94;;;8.90;100.00
18790;BME280;9523;42.650;23.386;2022-09-20T05:48:42;94774.16;;;8.89;100.00
18790;BME280;9523;42.650;23.386;2022-09-20T05:51:21;94770.59;;;8.70;100.00
18790;BME280;9523;42.650;23.386;2022-09-20T05:54:10;94781.59;;;8.77;100.00
18790;BME280;9523;42.650;23.386;2022-09-20T05:56:49;94774.22;;;8.79;100.00
18790;BME280;9523;42.650;23.386;2022-09-20T05:59:27;94778.88;;;8.92;100.00
18790;BME280;9523;42.650;23.386;2022-09-20T06:02:17;94779.91;;;8.96;100.00
18790;BME280;9523;42.650;23.386;2022-09-20T06:04:54;94761.31;;;8.83;100.00
18790;BME280;9523;42.650;23.386;2022-09-20T06:07:31;94777.25;;;9.02;100.00
18790;BME280;9523;42.650;23.386;2022-09-20T06:10:19;94774.03;;;9.10;100.00
18790;BME280;9523;42.650;23.386;2022-09-20T06:12:54;94757.25;;;9.01;100.00
18790;BME280;9523;42.650;23.386;2022-09-20T06:15:33;94774.69;;;9.25;100.00
18790;BME280;9523;42.650;23.386;2022-09-20T06:18:17;94777.56;;;9.29;100.00
18790;BME280;9523;42.650;23.386;2022-09-20T06:20:59;94772.53;;;9.32;100.00
18790;BME280;9523;42.650;23.386;2022-09-20T06:23:30;94782.22;;;9.42;100.00
18790;BME280;9523;42.650;23.386;2022-09-20T06:26:01;94770.97;;;9.31;100.00
18790;BME280;9523;42.650;23.386;2022-09-20T06:28:33;94754.84;;;9.38;100.00
18790;BME280;9523;42.650;23.386;2022-09-20T06:31:01;94771.34;;;9.49;100.00
18790;BME280;9523;42.650;23.386;2022-09-20T06:33:31;94782.88;;;9.58;100.00
18790;BME280;9523;42.650;23.386;2022-09-20T06:36:02;94779.91;;;9.64;100.00
18790;BME280;9523;42.650;23.386;2022-09-20T06:38:50;94787.28;;;9.67;100.00
18790;BME280;9523;42.650;23.386;2022-09-20T06:41:41;94769.13;;;9.61;100.00
18790;BME280;9523;42.650;23.386;2022-09-20T06:44:09;94762.44;;;9.73;100.00
18790;BME280;9523;42.650;23.386;2022-09-20T06:46:36;94750.44;;;9.62;100.00
18790;BME280;9523;42.650;23.386;2022-09-20T06:49:03;94770.75;;;9.85;100.00
18790;BME280;9523;42.650;23.386;2022-09-20T06:51:33;94772.59;;;9.85;100.00
18790;BME280;9523;42.650;23.386;2022-09-20T06:54:03;94773.38;;;9.85;100.00
18790;BME280;9523;42.650;23.386;2022-09-20T06:56:31;94776.25;;;9.89;100.00
18790;BME280;9523;42.650;23.386;2022-09-20T06:59:02;94774.13;;;9.91;100.00
18790;BME280;9523;42.650;23.386;2022-09-20T07:01:30;94773.38;;;9.85;100.00
18790;BME280;9523;42.650;23.386;2022-09-20T07:03:57;94782.09;;;10.10;100.00
18790;BME280;9523;42.650;23.386;2022-09-20T07:06:24;94784.16;;;10.18;100.00
18790;BME280;9523;42.650;23.386;2022-09-20T07:08:53;94786.19;;;10.26;100.00
18790;BME280;9523;42.650;23.386;2022-09-20T07:11:20;94785.78;;;10.38;100.00
18790;BME280;9523;42.650;23.386;2022-09-20T07:13:50;94780.22;;;10.39;99.92
18790;BME280;9523;42.650;23.386;2022-09-20T07:16:19;94800.63;;;10.52;97.47
18790;BME280;9523;42.650;23.386;2022-09-20T07:18:48;94791.94;;;10.52;95.64
18790;BME280;9523;42.650;23.386;2022-09-20T07:21:17;94787.28;;;10.44;94.80
18790;BME280;9523;42.650;23.386;2022-09-20T07:23:45;94780.31;;;10.53;94.77
18790;BME280;9523;42.650;23.386;2022-09-20T07:26:16;94791.03;;;10.61;94.27
18790;BME280;9523;42.650;23.386;2022-09-20T07:28:44;94787.81;;;10.64;92.89
18790;BME280;9523;42.650;23.386;2022-09-20T07:31:10;94785.50;;;10.81;93.12
18790;BME280;9523;42.650;23.386;2022-09-20T07:33:40;94794.84;;;10.93;92.27
18790;BME280;9523;42.650;23.386;2022-09-20T07:36:14;94787.56;;;11.03;91.57
18790;BME280;9523;42.650;23.386;2022-09-20T07:38:42;94782.22;;;11.08;91.22
18790;BME280;9523;42.650;23.386;2022-09-20T07:41:12;94781.38;;;11.13;87.21
18790;BME280;9523;42.650;23.386;2022-09-20T07:43:39;94785.41;;;11.24;80.41
18790;BME280;9523;42.650;23.386;2022-09-20T07:46:06;94784.13;;;11.40;82.23
18790;BME280;9523;42.650;23.386;2022-09-20T07:48:34;94785.03;;;11.49;83.96
18790;BME280;9523;42.650;23.386;2022-09-20T07:51:05;94785.53;;;11.51;84.02
18790;BME280;9523;42.650;23.386;2022-09-20T07:53:32;94771.50;;;11.69;84.57
18790;BME280;9523;42.650;23.386;2022-09-20T07:56:00;94767.03;;;11.84;79.41
18790;BME280;9523;42.650;23.386;2022-09-20T07:58:29;94792.47;;;11.80;76.57
18790;BME280;9523;42.650;23.386;2022-09-20T08:00:58;94782.41;;;11.82;74.46
18790;BME280;9523;42.650;23.386;2022-09-20T08:03:25;94783.88;;;11.88;75.07
18790;BME280;9523;42.650;23.386;2022-09-20T08:05:58;94774.81;;;11.94;76.68
18790;BME280;9523;42.650;23.386;2022-09-20T08:08:27;94779.41;;;12.02;78.39
18790;BME280;9523;42.650;23.386;2022-09-20T08:11:00;94774.31;;;12.19;69.66
18790;BME280;9523;42.650;23.386;2022-09-20T08:13:31;94777.09;;;12.41;68.97
18790;BME280;9523;42.650;23.386;2022-09-20T08:16:01;94767.69;;;12.49;68.77
18790;BME280;9523;42.650;23.386;2022-09-20T08:18:28;94777.75;;;12.60;68.00
18790;BME280;9523;42.650;23.386;2022-09-20T08:20:58;94781.38;;;12.64;67.66
18790;BME280;9523;42.650;23.386;2022-09-20T08:23:33;94786.69;;;12.64;65.31
18790;BME280;9523;42.650;23.386;2022-09-20T08:25:59;94792.72;;;12.79;65.50
18790;BME280;9523;42.650;23.386;2022-09-20T08:28:27;94778.09;;;12.95;65.01
18790;BME280;9523;42.650;23.386;2022-09-20T08:31:00;94776.91;;;13.37;63.01
18790;BME280;9523;42.650;23.386;2022-09-20T08:33:27;94776.28;;;14.15;56.74
18790;BME280;9523;42.650;23.386;2022-09-20T08:35:53;94771.25;;;14.05;52.40
18790;BME280;9523;42.650;23.386;2022-09-20T08:38:20;94769.75;;;13.59;53.41
18790;BME280;9523;42.650;23.386;2022-09-20T08:40:54;94763.72;;;13.68;55.75
18790;BME280;9523;42.650;23.386;2022-09-20T08:43:26;94750.47;;;14.94;52.30
18790;BME280;9523;42.650;23.386;2022-09-20T08:45:54;94765.09;;;16.04;47.99
18790;BME280;9523;42.650;23.386;2022-09-20T08:48:23;94751.75;;;16.50;44.48
18790;BME280;9523;42.650;23.386;2022-09-20T08:50:57;94761.31;;;17.30;44.12
18790;BME280;9523;42.650;23.386;2022-09-20T08:53:25;94750.03;;;17.46;42.14
18790;BME280;9523;42.650;23.386;2022-09-20T08:55:55;94751.34;;;17.60;41.73
18790;BME280;9523;42.650;23.386;2022-09-20T08:58:25;94744.28;;;17.56;40.65
18790;BME280;9523;42.650;23.386;2022-09-20T09:00:52;94744.19;;;17.73;39.94
18790;BME280;9523;42.650;23.386;2022-09-20T09:03:20;94745.63;;;18.40;38.92
18790;BME280;9523;42.650;23.386;2022-09-20T09:05:48;94735.28;;;18.50;38.45
18790;BME280;9523;42.650;23.386;2022-09-20T09:08:18;94737.81;;;18.10;39.77
18790;BME280;9523;42.650;23.386;2022-09-20T09:10:47;94738.00;;;17.93;39.43
18790;BME280;9523;42.650;23.386;2022-09-20T09:13:24;94730.50;;;18.80;39.10
18790;BME280;9523;42.650;23.386;2022-09-20T09:15:56;94723.84;;;18.86;37.77
18790;BME280;9523;42.650;23.386;2022-09-20T09:18:30;94723.34;;;19.36;36.21
18790;BME280;9523;42.650;23.386;2022-09-20T09:20:59;94720.50;;;18.65;36.60
18790;BME280;9523;42.650;23.386;2022-09-20T09:23:28;94702.59;;;17.72;38.39
18790;BME280;9523;42.650;23.386;2022-09-20T09:26:03;94708.28;;;17.82;39.07
18790;BME280;9523;42.650;23.386;2022-09-20T09:28:32;94718.03;;;18.48;38.42
18790;BME280;9523;42.650;23.386;2022-09-20T09:31:12;94692.53;;;18.14;38.90
18790;BME280;9523;42.650;23.386;2022-09-20T09:33:42;94697.53;;;18.88;38.79
18790;BME280;9523;42.650;23.386;2022-09-20T09:36:13;94694.91;;;18.52;39.47
18790;BME280;9523;42.650;23.386;2022-09-20T09:38:41;94704.25;;;18.46;40.36
18790;BME280;9523;42.650;23.386;2022-09-20T09:41:21;94703.84;;;19.91;38.29
18790;BME280;9523;42.650;23.386;2022-09-20T09:43:58;94700.84;;;20.08;36.39
18790;BME280;9523;42.650;23.386;2022-09-20T09:46:29;94703.06;;;19.47;37.58
18790;BME280;9523;42.650;23.386;2022-09-20T09:49:06;94709.44;;;19.03;36.86
18790;BME280;9523;42.650;23.386;2022-09-20T09:51:34;94708.75;;;19.74;36.06
18790;BME280;9523;42.650;23.386;2022-09-20T09:54:02;94711.22;;;20.26;35.13
18790;BME280;9523;42.650;23.386;2022-09-20T09:56:48;94711.09;;;21.20;34.17
18790;BME280;9523;42.650;23.386;2022-09-20T09:59:40;94708.84;;;20.71;34.19
18790;BME280;9523;42.650;23.386;2022-09-20T10:02:39;94705.50;;;20.43;34.18
18790;BME280;9523;42.650;23.386;2022-09-20T10:05:12;94704.13;;;18.79;36.85
18790;BME280;9523;42.650;23.386;2022-09-20T10:07:46;94716.94;;;17.47;38.87
18790;BME280;9523;42.650;23.386;2022-09-20T10:10:24;94704.03;;;16.95;40.61
18790;BME280;9523;42.650;23.386;2022-09-20T10:13:06;94698.38;;;16.47;41.64
18790;BME280;9523;42.650;23.386;2022-09-20T10:15:40;94694.03;;;16.71;41.67
18790;BME280;9523;42.650;23.386;2022-09-20T10:18:33;94706.63;;;16.83;41.79
18790;BME280;9523;42.650;23.386;2022-09-20T10:21:11;94696.09;;;17.07;41.08
18790;BME280;9523;42.650;23.386;2022-09-20T10:24:01;94690.56;;;18.23;38.28
18790;BME280;9523;42.650;23.386;2022-09-20T10:27:16;94675.28;;;19.52;36.38
18790;BME280;9523;42.650;23.386;2022-09-20T10:29:57;94692.56;;;19.54;35.20
18790;BME280;9523;42.650;23.386;2022-09-20T10:35:29;94699.09;;;17.26;38.84
18790;BME280;9523;42.650;23.386;2022-09-20T10:38:15;94685.97;;;16.80;39.83
18790;BME280;9523;42.650;23.386;2022-09-20T10:41:02;94652.47;;;17.45;40.50
18790;BME280;9523;42.650;23.386;2022-09-20T10:44:10;94690.47;;;19.36;36.80
18790;BME280;9523;42.650;23.386;2022-09-20T10:46:53;94677.81;;;19.76;35.47
18790;BME280;9523;42.650;23.386;2022-09-20T10:49:34;94678.00;;;20.96;33.67
18790;BME280;9523;42.650;23.386;2022-09-20T10:52:25;94686.91;;;21.96;31.47
18790;BME280;9523;42.650;23.386;2022-09-20T10:55:22;94685.84;;;22.01;29.89
18790;BME280;9523;42.650;23.386;2022-09-20T11:01:00;94676.09;;;21.93;30.29
18790;BME280;9523;42.650;23.386;2022-09-20T11:03:57;94683.75;;;21.72;30.55
18790;BME280;9523;42.650;23.386;2022-09-20T11:06:39;94686.38;;;21.91;30.75
18790;BME280;9523;42.650;23.386;2022-09-20T11:09:12;94684.13;;;21.13;30.77
18790;BME280;9523;42.650;23.386;2022-09-20T11:11:45;94663.34;;;20.75;32.01
18790;BME280;9523;42.650;23.386;2022-09-20T11:14:19;94674.44;;;20.73;31.50
18790;BME280;9523;42.650;23.386;2022-09-20T11:16:50;94676.91;;;20.47;32.29
18790;BME280;9523;42.650;23.386;2022-09-20T11:19:23;94664.88;;;20.56;31.83
18790;BME280;9523;42.650;23.386;2022-09-20T11:21:57;94661.06;;;19.79;33.00
18790;BME280;9523;42.650;23.386;2022-09-20T11:24:30;94649.25;;;21.13;32.01
18790;BME280;9523;42.650;23.386;2022-09-20T11:27:04;94651.94;;;21.13;30.33
18790;BME280;9523;42.650;23.386;2022-09-20T11:29:35;94665.53;;;20.69;31.14
18790;BME280;9523;42.650;23.386;2022-09-20T11:32:09;94664.63;;;21.16;30.83
18790;BME280;9523;42.650;23.386;2022-09-20T11:34:51;94660.22;;;21.46;29.67
18790;BME280;9523;42.650;23.386;2022-09-20T11:37:23;94656.63;;;21.00;29.88
18790;BME280;9523;42.650;23.386;2022-09-20T11:39:53;94655.47;;;20.31;30.77
18790;BME280;9523;42.650;23.386;2022-09-20T11:42:22;94660.44;;;20.64;31.46
18790;BME280;9523;42.650;23.386;2022-09-20T11:44:53;94653.50;;;21.33;30.14
18790;BME280;9523;42.650;23.386;2022-09-20T11:47:22;94645.13;;;20.30;31.73
18790;BME280;9523;42.650;23.386;2022-09-20T11:50:09;94656.13;;;20.94;31.29
18790;BME280;9523;42.650;23.386;2022-09-20T11:52:51;94655.13;;;21.02;31.24
18790;BME280;9523;42.650;23.386;2022-09-20T11:55:31;94652.81;;;21.59;30.36
18790;BME280;9523;42.650;23.386;2022-09-20T11:58:03;94649.81;;;21.41;31.04
18790;BME280;9523;42.650;23.386;2022-09-20T12:00:37;94629.53;;;21.43;31.80
18790;BME280;9523;42.650;23.386;2022-09-20T12:03:20;94635.69;;;22.35;30.16
18790;BME280;9523;42.650;23.386;2022-09-20T12:05:55;94646.78;;;22.07;29.53
18790;BME280;9523;42.650;23.386;2022-09-20T12:08:26;94644.16;;;20.38;31.46
18790;BME280;9523;42.650;23.386;2022-09-20T12:10:57;94635.16;;;20.46;32.49
18790;BME280;9523;42.650;23.386;2022-09-20T12:13:25;94632.28;;;20.54;32.40
18790;BME280;9523;42.650;23.386;2022-09-20T12:15:58;94635.75;;;21.28;31.50
18790;BME280;9523;42.650;23.386;2022-09-20T12:21:14;94631.94;;;22.13;29.86
18790;BME280;9523;42.650;23.386;2022-09-20T12:23:59;94613.28;;;22.24;29.08
18790;BME280;9523;42.650;23.386;2022-09-20T12:26:43;94634.06;;;21.81;29.68
18790;BME280;9523;42.650;23.386;2022-09-20T12:32:54;94615.75;;;20.33;33.23
18790;BME280;9523;42.650;23.386;2022-09-20T12:38:59;94633.50;;;22.18;29.39
18790;BME280;9523;42.650;23.386;2022-09-20T12:41:27;94625.88;;;21.32;30.74
18790;BME280;9523;42.650;23.386;2022-09-20T12:44:03;94632.84;;;21.37;30.37
18790;BME280;9523;42.650;23.386;2022-09-20T12:46:35;94618.34;;;22.29;29.41
18790;BME280;9523;42.650;23.386;2022-09-20T12:49:21;94606.66;;;21.95;28.98
18790;BME280;9523;42.650;23.386;2022-09-20T12:52:23;94608.94;;;21.93;29.10
18790;BME280;9523;42.650;23.386;2022-09-20T12:55:11;94626.16;;;21.69;29.60
18790;BME280;9523;42.650;23.386;2022-09-20T12:57:52;94605.47;;;21.92;29.42
18790;BME280;9523;42.650;23.386;2022-09-20T13:00:29;94623.38;;;21.04;30.47
18790;BME280;9523;42.650;23.386;2022-09-20T13:03:09;94621.63;;;21.31;30.41
18790;BME280;9523;42.650;23.386;2022-09-20T13:05:40;94617.06;;;21.13;30.17
18790;BME280;9523;42.650;23.386;2022-09-20T13:08:16;94625.22;;;22.04;29.63
18790;BME280;9523;42.650;23.386;2022-09-20T13:10:56;94609.44;;;22.51;28.02
18790;BME280;9523;42.650;23.386;2022-09-20T13:13:30;94608.34;;;22.56;28.05
18790;BME280;9523;42.650;23.386;2022-09-20T13:15:59;94608.00;;;22.83;28.06
18790;BME280;9523;42.650;23.386;2022-09-20T13:18:30;94605.28;;;23.13;27.10
18790;BME280;9523;42.650;23.386;2022-09-20T13:20:59;94605.47;;;23.64;27.02
18790;BME280;9523;42.650;23.386;2022-09-20T13:23:30;94598.56;;;23.67;26.26
18790;BME280;9523;42.650;23.386;2022-09-20T13:26:05;94604.69;;;23.30;26.61
18790;BME280;9523;42.650;23.386;2022-09-20T13:28:39;94610.75;;;23.54;27.08
18790;BME280;9523;42.650;23.386;2022-09-20T13:31:22;94608.50;;;23.26;26.19
18790;BME280;9523;42.650;23.386;2022-09-20T13:33:49;94607.25;;;23.16;26.41
18790;BME280;9523;42.650;23.386;2022-09-20T13:36:24;94605.69;;;22.29;26.86
18790;BME280;9523;42.650;23.386;2022-09-20T13:38:54;94606.94;;;22.65;27.29
18790;BME280;9523;42.650;23.386;2022-09-20T13:41:26;94610.38;;;22.88;26.45
18790;BME280;9523;42.650;23.386;2022-09-20T13:43:56;94614.41;;;22.49;26.35
18790;BME280;9523;42.650;23.386;2022-09-20T13:46:29;94602.75;;;22.41;26.67
18790;BME280;9523;42.650;23.386;2022-09-20T13:49:06;94599.00;;;22.72;26.22
18790;BME280;9523;42.650;23.386;2022-09-20T13:51:35;94602.78;;;23.31;25.77
18790;BME280;9523;42.650;23.386;2022-09-20T13:54:17;94608.09;;;23.57;25.59
18790;BME280;9523;42.650;23.386;2022-09-20T13:56:51;94616.41;;;23.45;25.35
18790;BME280;9523;42.650;23.386;2022-09-20T13:59:18;94596.06;;;23.84;24.96
18790;BME280;9523;42.650;23.386;2022-09-20T14:01:49;94605.25;;;23.80;24.87
18790;BME280;9523;42.650;23.386;2022-09-20T14:04:20;94596.91;;;22.62;25.90
18790;BME280;9523;42.650;23.386;2022-09-20T14:06:48;94598.78;;;22.58;25.63
18790;BME280;9523;42.650;23.386;2022-09-20T14:09:24;94599.22;;;23.20;25.45
18790;BME280;9523;42.650;23.386;2022-09-20T14:11:55;94599.28;;;23.27;25.35
18790;BME280;9523;42.650;23.386;2022-09-20T14:14:24;94581.88;;;23.17;25.60
18790;BME280;9523;42.650;23.386;2022-09-20T14:16:54;94597.41;;;23.31;25.63
18790;BME280;9523;42.650;23.386;2022-09-20T14:19:26;94596.03;;;23.11;25.89
18790;BME280;9523;42.650;23.386;2022-09-20T14:22:02;94606.44;;;22.82;26.09
18790;BME280;9523;42.650;23.386;2022-09-20T14:24:31;94590.22;;;22.75;25.83
18790;BME280;9523;42.650;23.386;2022-09-20T14:27:13;94599.50;;;21.80;28.01
18790;BME280;9523;42.650;23.386;2022-09-20T14:29:42;94597.19;;;22.01;27.80
18790;BME280;9523;42.650;23.386;2022-09-20T14:32:25;94598.84;;;22.35;27.96